Flight Track Log - Related Links

Times and Time Zones

All times are in EDT time to prevent confusion due to time zone crossing. See the JAL96 flight status page for this flight to view local times or setup timezone preferences in your user account.

Time Position Orientation Groundspeed Altitude Reporting Facility
EDT Latitude Longitude Course Direction KTS MPH feet Rate Location/Type
Mon 08:54:00 PM 25.3112 121.8938 52° Northeast  Level Estimated
Mon 08:55:00 PM 25.3916 122.0081 52° Northeast  Level Estimated
Mon 08:56:00 PM 25.4719 122.1226 52° Northeast  Level Estimated
Mon 08:57:00 PM 25.5521 122.2372 52° Northeast  Level Estimated
Mon 08:58:00 PM 25.6322 122.3520 52° Northeast  Level Estimated
Mon 08:59:00 PM 25.7106 122.4646 52° Northeast  Level Estimated
Mon 09:00:00 PM 25.7890 122.5774 52° Northeast  Level Estimated
Mon 09:01:00 PM 25.8672 122.6903 52° Northeast  Level Estimated
Mon 09:02:00 PM 25.9454 122.8033 52° Northeast  Level Estimated
Mon 09:03:00 PM 26.0234 122.9165 52° Northeast  Level Estimated
Mon 09:04:00 PM 26.1014 123.0299 53° Northeast  Level Estimated
Mon 09:05:00 PM 26.1793 123.1434 53° Northeast  Level Estimated
Mon 09:06:00 PM 26.2571 123.2570 53° Northeast  Level Estimated
Mon 09:07:00 PM 26.3348 123.3708 53° Northeast  Level Estimated
Mon 09:08:00 PM 26.4124 123.4848 53° Northeast  Level Estimated
Mon 09:09:00 PM 26.4899 123.5989 53° Northeast  Level Estimated
Mon 09:10:00 PM 26.5674 123.7132 53° Northeast  Level Estimated
Mon 09:11:00 PM 26.6447 123.8276 53° Northeast  Level Estimated
Mon 09:12:00 PM 26.7220 123.9422 53° Northeast  Level Estimated
Mon 09:13:00 PM 26.7991 124.0569 53° Northeast  Level Estimated
Mon 09:14:00 PM 26.8762 124.1718 53° Northeast  Level Estimated
Mon 09:15:00 PM 26.9532 124.2868 53° Northeast  Level Estimated
Mon 09:16:00 PM 27.0301 124.4020 53° Northeast  Level Estimated
Mon 09:17:00 PM 27.1068 124.5174 53° Northeast  Level Estimated
Mon 09:18:00 PM 27.1851 124.6353 53° Northeast  Level Estimated
Mon 09:19:00 PM 27.2633 124.7534 53° Northeast  Level Estimated
Mon 09:20:00 PM 27.3414 124.8717 53° Northeast  Level Estimated
Mon 09:21:00 PM 27.4194 124.9901 53° Northeast  Level Estimated
Mon 09:22:00 PM 27.4973 125.1087 53° Northeast  Level Estimated
Mon 09:23:00 PM 27.5751 125.2274 54° Northeast  Level Estimated
Mon 09:24:00 PM 27.6528 125.3464 54° Northeast  Level Estimated
Mon 09:25:00 PM 27.7304 125.4655 54° Northeast  Level Estimated
Mon 09:26:00 PM 27.8078 125.5847 54° Northeast  Level Estimated
Mon 09:27:00 PM 27.8852 125.7042 54° Northeast  Level Estimated
Mon 09:28:00 PM 27.9625 125.8238 54° Northeast  Level Estimated
Mon 09:29:00 PM 28.0397 125.9436 54° Northeast  Level Estimated
Mon 09:30:00 PM 28.1168 126.0635 54° Northeast  Level Estimated
Mon 09:31:00 PM 28.1937 126.1836 54° Northeast  Level Estimated
Mon 09:32:00 PM 28.2706 126.3039 54° Northeast  Level Estimated
Mon 09:33:00 PM 28.3474 126.4244 54° Northeast  Level Estimated
Mon 09:34:00 PM 28.4240 126.5450 54° Northeast  Level Estimated
Mon 09:35:00 PM 28.5005 126.6658 54° Northeast  Level Estimated
Mon 09:36:00 PM 28.5770 126.7868 54° Northeast  Level Estimated
Mon 09:37:00 PM 28.6533 126.9080 54° Northeast  Level Estimated
Mon 09:38:00 PM 28.7295 127.0294 54° Northeast  Level Estimated
Mon 09:39:00 PM 28.8057 127.1509 54° Northeast  Level Estimated
Mon 09:40:00 PM 28.8817 127.2726 54° Northeast  Level Estimated
Mon 09:41:00 PM 28.9576 127.3944 55° Northeast  Level Estimated
Mon 09:42:00 PM 29.0333 127.5165 55° Northeast  Level Estimated
Mon 09:43:00 PM 29.1090 127.6387 55° Northeast  Level Estimated
Mon 09:44:00 PM 29.1846 127.7611 55° Northeast  Level Estimated
Mon 09:45:00 PM 29.2600 127.8838 55° Northeast  Level Estimated
Mon 09:46:00 PM 29.3354 128.0065 55° Northeast  Level Estimated
Mon 09:47:00 PM 29.4106 128.1295 55° Northeast  Level Estimated
Mon 09:48:00 PM 29.4857 128.2526 55° Northeast  Level Estimated
Mon 09:49:00 PM 29.5607 128.3759 55° Northeast  Level Estimated
Mon 09:50:00 PM 29.6356 128.4995 55° Northeast  Level Estimated
Mon 09:51:00 PM 29.7104 128.6231 55° Northeast  Level Estimated
Mon 09:52:00 PM 29.7850 128.7470 55° Northeast  Level Estimated
Mon 09:53:00 PM 29.8596 128.8711 55° Northeast  Level Estimated
Mon 09:54:00 PM 29.9340 128.9953 55° Northeast  Level Estimated
Mon 09:55:00 PM 30.0083 129.1197 55° Northeast  Level Estimated
Mon 09:56:00 PM 30.0825 129.2444 55° Northeast  Level Estimated
Mon 09:57:00 PM 30.1566 129.3692 56° Northeast  Level Estimated
Mon 09:58:00 PM 30.2306 129.4942 56° Northeast  Level Estimated
Mon 09:59:00 PM 30.3044 129.6193 56° Northeast  Level Estimated
Mon 10:00:00 PM 30.3781 129.7447 56° Northeast  Level Estimated
Mon 10:01:00 PM 30.4517 129.8703 56° Northeast  Level Estimated
Mon 10:02:00 PM 30.5252 129.9960 56° Northeast  Level Estimated
Mon 10:03:00 PM 30.5985 130.1219 56° Northeast  Level Estimated
Mon 10:04:00 PM 30.6718 130.2481 56° Northeast  Level Estimated
Mon 10:05:00 PM 30.7449 130.3744 56° Northeast  Level Estimated
Mon 10:06:00 PM 30.8179 130.5009 56° Northeast  Level Estimated
Mon 10:07:00 PM 30.8908 130.6276 56° Northeast  Level Estimated
Mon 10:08:00 PM 30.9635 130.7545 56° Northeast  Level Estimated
Mon 10:09:00 PM 31.0361 130.8816 56° Northeast  Level Estimated
Mon 10:10:00 PM 31.1086 131.0089 56° Northeast  Level Estimated
Mon 10:11:00 PM 31.1810 131.1363 56° Northeast  Level Estimated
Mon 10:12:00 PM 31.2532 131.2640 56° Northeast  Level Estimated
Mon 10:13:00 PM 31.3253 131.3919 57° Northeast  Level Estimated
Mon 10:14:00 PM 31.3973 131.5199 57° Northeast  Level Estimated
Mon 10:15:00 PM 31.4692 131.6482 57° Northeast  Level Estimated
Mon 10:16:00 PM 31.5409 131.7766 57° Northeast  Level Estimated
Mon 10:17:00 PM 31.6125 131.9053 57° Northeast  Level Estimated
Mon 10:18:00 PM 31.6845 132.0350 57° Northeast  Level Estimated
Mon 10:19:00 PM 31.7564 132.1650 57° Northeast  Level Estimated
Mon 10:20:00 PM 31.8281 132.2952 57° Northeast  Level Estimated
Mon 10:21:00 PM 31.8997 132.4255 57° Northeast  Level Estimated
Mon 10:22:00 PM 31.9711 132.5561 57° Northeast  Level Estimated
Mon 10:23:00 PM 32.0424 132.6868 57° Northeast  Level Estimated
Mon 10:24:00 PM 32.1136 132.8178 57° Northeast  Level Estimated
Mon 10:25:00 PM 32.1847 132.9490 57° Northeast  Level Estimated
Mon 10:26:00 PM 32.2556 133.0803 57° Northeast  Level Estimated
Mon 10:27:00 PM 32.3263 133.2119 57° Northeast  Level Estimated
Mon 10:28:00 PM 32.3970 133.3437 58° Northeast  Level Estimated
Mon 10:29:00 PM 32.4675 133.4757 58° Northeast  Level Estimated
Mon 10:30:00 PM 32.5378 133.6079 58° Northeast  Level Estimated
Mon 10:31:00 PM 32.6081 133.7403 58° Northeast  Level Estimated
Mon 10:32:00 PM 32.6781 133.8729 58° Northeast  Level Estimated
Mon 10:33:00 PM 32.7481 134.0058 58° Northeast  Level Estimated
Mon 10:34:00 PM 32.8179 134.1388 58° Northeast  Level Estimated
Mon 10:35:00 PM 32.8875 134.2720 58° Northeast  Level Estimated
Mon 10:36:00 PM 32.9576 134.4064 58° Northeast  Level Estimated
Mon 10:37:00 PM 33.0274 134.5410 58° Northeast  Level Estimated
Mon 10:38:00 PM 33.0971 134.6758 58° Northeast  Level Estimated
Mon 10:39:00 PM 33.1667 134.8109 58° Northeast  Level Estimated
Mon 10:40:00 PM 33.2361 134.9461 58° Northeast  Level Estimated
Mon 10:41:00 PM 33.3059 135.0825 59° Northeast  Level Estimated
Mon 10:41:21 PM 33.2991 136.1164 76° East 543 625 39,000  Level FlightAware ADS-B
Mon 10:42:00 PM 33.3755 135.2192 59° Northeast  Level Estimated
Mon 10:42:19 PM 33.3352 136.2851 76° East 544 626 39,000  Level FlightAware ADS-B
Mon 10:43:19 PM 33.3718 136.4580 76° East 542 624 39,000  Level FlightAware ADS-B
Mon 10:43:59 PM 33.3963 136.5736 76° East 540 621 39,000  Level FlightAware ADS-B
Mon 10:44:39 PM 33.4203 136.6886 76° East 539 620 39,000  Level FlightAware ADS-B
Mon 10:45:20 PM 33.4455 136.8096 76° East 537 618 39,000  Level FlightAware ADS-B
Mon 10:46:20 PM 33.4808 136.9805 76° East 533 613 39,000  Level FlightAware ADS-B
Mon 10:47:01 PM 33.5044 137.0945 76° East 532 612 39,000  Level FlightAware ADS-B
Mon 10:47:40 PM 33.5279 137.2090 77° East 529 609 39,000  Level FlightAware ADS-B
Mon 10:48:20 PM 33.5516 137.3254 77° East 529 609 39,000  Level FlightAware ADS-B
Mon 10:49:01 PM 33.5745 137.4378 77° East 529 609 39,000  Level FlightAware ADS-B
Mon 10:49:38 PM 33.5962 137.5458 77° East 529 609 39,000  Level FlightAware ADS-B
Mon 10:50:20 PM 33.6367 137.6586 59° Northeast 533 613 39,000  Level FlightAware ADS-B
Mon 10:51:01 PM 33.6963 137.7611 56° Northeast 537 618 39,000  Level FlightAware ADS-B
Mon 10:51:38 PM 33.7490 137.8532 53° Northeast 536 617 39,000 -203 Level FlightAware ADS-B
Mon 10:52:00 PM 33.7858 137.8991 42° Northeast 522 601 38,800 -1,229 Descending FlightAware ADS-B
Mon 10:53:01 PM 33.9139 137.9682 12° North 490 564 37,300 -1,140 Descending FlightAware ADS-B
Mon 10:53:40 PM 34.0020 137.9911 12° North 497 572 36,900 -1,747 Descending FlightAware ADS-B
Mon 10:54:20 PM 34.0898 138.0276 30° Northeast 540 621 35,000 -2,400 Descending FlightAware ADS-B
Mon 10:54:40 PM 34.1295 138.0630 42° Northeast 543 625 34,500 -1,650 Descending FlightAware ADS-B
Mon 10:55:00 PM 34.1626 138.1098 55° Northeast 538 619 33,900 -1,800 Descending FlightAware ADS-B
Mon 10:55:20 PM 34.1858 138.1650 69° East 527 606 33,300 -1,932 Descending FlightAware ADS-B
Mon 10:55:59 PM 34.2165 138.2704 72° East 522 601 32,000 -1,643 Descending FlightAware ADS-B
Mon 10:57:57 PM 34.3177 138.5765 66° East 484 557 29,000 -1,434 Descending FlightAware ADS-B
Mon 10:58:00 PM 34.4140 138.4893 42° Northeast  Level Estimated
Mon 10:58:38 PM 34.3539 138.6758 68° East 476 548 28,200  Level FlightAware ADS-B
Mon 10:59:20 PM 34.3899 138.7782 67° East 495 570 25,900 -2,796 Descending FlightAware ADS-B
Mon 11:00:21 PM 34.4436 138.9335 69° East 480 552 23,400 -2,313 Descending FlightAware ADS-B
Mon 11:00:56 PM 34.4746 139.0232 68° East 471 542 22,200 -2,133 Descending FlightAware ADS-B
Mon 11:01:51 PM 34.5209 139.1548 67° East 457 526 20,200 -1,627 Descending FlightAware ADS-B
Mon 11:02:54 PM 34.5715 139.3014 68° East 444 511 19,000 -692 Descending FlightAware ADS-B
Mon 11:03:35 PM 34.6040 139.3957 67° East 453 521 19,000 -488 Level FlightAware ADS-B
Mon 11:04:20 PM 34.6406 139.5016 68° East 442 509 18,300 -1,597 Descending FlightAware ADS-B
Mon 11:05:39 PM 34.7272 139.6610 49° Northeast 414 476 15,700 -2,033 Descending FlightAware ADS-B
Mon 11:06:21 PM 34.7817 139.7345 48° Northeast 414 476 14,200 -1,976 Descending FlightAware ADS-B
Mon 11:07:01 PM 34.8317 139.8039 47° Northeast 400 460 13,000 -1,966 Descending FlightAware ADS-B
Mon 11:07:19 PM 34.8578 139.8278 32° Northeast 377 434 12,300 -1,831 Descending FlightAware ADS-B
Mon 11:08:00 PM 34.9179 139.8697 29° Northeast 334 384 11,200 -1,610 Descending FlightAware ADS-B
Mon 11:08:41 PM 34.9722 139.9035 23° Northeast 312 359 10,100 -1,932 Descending FlightAware ADS-B
Mon 11:08:59 PM 34.9974 139.9140 16° North 303 349 9,300 -2,211 Descending FlightAware ADS-B
Mon 11:09:19 PM 35.0245 139.9216 12° North 300 345 8,700 -1,475 Descending FlightAware ADS-B
Mon 11:10:00 PM 35.0790 139.9354 12° North 294 338 7,800 -1,300 Descending FlightAware ADS-B
Mon 11:10:19 PM 35.1053 139.9422 12° North 283 326 7,400 -1,350 Descending FlightAware ADS-B
Mon 11:10:40 PM 35.1323 139.9494 13° North 280 322 6,900 -1,425 Descending FlightAware ADS-B
Mon 11:11:39 PM 35.2093 139.9704 13° North 281 323 5,500 -1,200 Descending FlightAware ADS-B
Mon 11:12:00 PM 35.2360 139.9776 11° North 276 318 5,300 -240 Descending FlightAware ADS-B
Mon 11:13:19 PM 35.3190 139.9400 329° Northwest 208 239 5,100 -360 Descending FlightAware ADS-B
Mon 11:13:40 PM 35.3360 139.9276 330° Northwest 203 234 4,700 -1,024 Descending FlightAware ADS-B
Mon 11:14:00 PM 35.3520 139.9163 329° Northwest 192 221 4,400 -1,024 Descending FlightAware ADS-B
Mon 11:14:21 PM 35.3683 139.9049 329° Northwest 189 217 4,000 -1,024 Descending FlightAware ADS-B
Mon 11:14:41 PM 35.3832 139.8942 329° Northwest 188 216 3,700 -923 Descending FlightAware ADS-B
Mon 11:15:00 PM 35.3986 139.8834 328° Northwest 187 215 3,400 -1,077 Descending FlightAware ADS-B
Mon 11:15:20 PM 35.4147 139.8720 329° Northwest 187 215 3,000 -1,024 Descending FlightAware ADS-B
Mon 11:15:41 PM 35.4300 139.8613 330° Northwest 189 217 2,700 -1,050 Descending FlightAware ADS-B
Mon 11:16:00 PM 35.4449 139.8507 330° Northwest 187 215 2,300 -1,077 Descending FlightAware ADS-B
Mon 11:16:20 PM 35.4590 139.8407 329° Northwest 172 198 2,000 -769 Descending FlightAware ADS-B
Mon 11:16:39 PM 35.4721 139.8314 330° Northwest 170 196 1,800 -800 Descending FlightAware ADS-B
Mon 11:17:20 PM 35.4971 139.8137 329° Northwest 136 157 1,200 -800 Descending FlightAware ADS-B
Mon 11:17:39 PM 35.5079 139.8060 328° Northwest 133 153 1,000 -667 Descending FlightAware ADS-B
Mon 11:17:56 PM 35.5177 139.7990 328° Northwest 132 152 800 -706 Descending FlightAware ADS-B
Mon 11:18:30 PM 35.5356 139.7864 328° Northwest 131 151 400 -706 Descending FlightAware ADS-B

Login

Don't have an account? Register now (free) for customized features, flight alerts, and more!